sensor_id;sensor_type;location;lat;lon;timestamp;temperature;humidity
20380;DHT22;10349;48.666;8.948;2024-02-26T00:00:39;3.70;99.90
20380;DHT22;10349;48.666;8.948;2024-02-26T00:03:04;3.70;99.90
20380;DHT22;10349;48.666;8.948;2024-02-26T00:05:30;3.80;99.90
20380;DHT22;10349;48.666;8.948;2024-02-26T00:07:57;3.80;99.90
20380;DHT22;10349;48.666;8.948;2024-02-26T00:10:22;3.70;99.90
20380;DHT22;10349;48.666;8.948;2024-02-26T00:12:48;3.70;99.90
20380;DHT22;10349;48.666;8.948;2024-02-26T00:15:14;3.70;99.90
20380;DHT22;10349;48.666;8.948;2024-02-26T00:17:39;3.70;99.90
20380;DHT22;10349;48.666;8.948;2024-02-26T00:20:06;3.70;99.90
20380;DHT22;10349;48.666;8.948;2024-02-26T00:22:35;3.70;99.90
20380;DHT22;10349;48.666;8.948;2024-02-26T00:25:01;3.70;99.90
20380;DHT22;10349;48.666;8.948;2024-02-26T00:27:27;3.70;99.90
20380;DHT22;10349;48.666;8.948;2024-02-26T00:29:53;3.70;99.90
20380;DHT22;10349;48.666;8.948;2024-02-26T00:32:18;3.80;99.90
20380;DHT22;10349;48.666;8.948;2024-02-26T00:34:44;3.80;99.90
20380;DHT22;10349;48.666;8.948;2024-02-26T00:37:10;3.80;99.90
20380;DHT22;10349;48.666;8.948;2024-02-26T00:39:35;3.90;99.90
20380;DHT22;10349;48.666;8.948;2024-02-26T00:42:01;3.90;99.90
20380;DHT22;10349;48.666;8.948;2024-02-26T00:44:28;3.90;99.90
20380;DHT22;10349;48.666;8.948;2024-02-26T00:46:54;3.90;99.90
20380;DHT22;10349;48.666;8.948;2024-02-26T00:49:19;3.90;99.90
20380;DHT22;10349;48.666;8.948;2024-02-26T00:51:45;3.90;99.90
20380;DHT22;10349;48.666;8.948;2024-02-26T00:54:11;3.90;99.90
20380;DHT22;10349;48.666;8.948;2024-02-26T00:56:36;3.80;99.90
20380;DHT22;10349;48.666;8.948;2024-02-26T00:59:02;3.80;99.90
20380;DHT22;10349;48.666;8.948;2024-02-26T01:01:27;3.80;99.90
20380;DHT22;10349;48.666;8.948;2024-02-26T01:03:53;3.80;99.90
20380;DHT22;10349;48.666;8.948;2024-02-26T01:06:19;3.80;99.90
20380;DHT22;10349;48.666;8.948;2024-02-26T01:08:44;3.80;99.90
20380;DHT22;10349;48.666;8.948;2024-02-26T01:11:10;3.90;99.90
20380;DHT22;10349;48.666;8.948;2024-02-26T01:13:35;3.90;99.90
20380;DHT22;10349;48.666;8.948;2024-02-26T01:16:01;4.00;99.90
20380;DHT22;10349;48.666;8.948;2024-02-26T01:18:27;4.10;99.90
20380;DHT22;10349;48.666;8.948;2024-02-26T01:20:53;4.10;99.90
20380;DHT22;10349;48.666;8.948;2024-02-26T01:23:21;4.10;99.90
20380;DHT22;10349;48.666;8.948;2024-02-26T01:25:47;4.20;99.90
20380;DHT22;10349;48.666;8.948;2024-02-26T01:28:15;4.10;99.90
20380;DHT22;10349;48.666;8.948;2024-02-26T01:30:41;4.10;99.90
20380;DHT22;10349;48.666;8.948;2024-02-26T01:33:07;4.10;99.90
20380;DHT22;10349;48.666;8.948;2024-02-26T01:35:32;4.00;99.90
20380;DHT22;10349;48.666;8.948;2024-02-26T01:37:58;4.10;99.90
20380;DHT22;10349;48.666;8.948;2024-02-26T01:40:27;4.10;99.90
20380;DHT22;10349;48.666;8.948;2024-02-26T01:42:52;4.00;99.90
20380;DHT22;10349;48.666;8.948;2024-02-26T01:45:18;4.00;99.90
20380;DHT22;10349;48.666;8.948;2024-02-26T01:47:49;4.00;99.90
20380;DHT22;10349;48.666;8.948;2024-02-26T01:50:16;4.10;99.90
20380;DHT22;10349;48.666;8.948;2024-02-26T01:52:42;4.10;99.90
20380;DHT22;10349;48.666;8.948;2024-02-26T01:55:08;4.10;99.90
20380;DHT22;10349;48.666;8.948;2024-02-26T01:57:34;4.10;99.90
20380;DHT22;10349;48.666;8.948;2024-02-26T01:59:59;4.10;99.90
20380;DHT22;10349;48.666;8.948;2024-02-26T02:02:25;4.20;99.90
20380;DHT22;10349;48.666;8.948;2024-02-26T02:04:52;4.10;99.90
20380;DHT22;10349;48.666;8.948;2024-02-26T02:07:19;4.20;99.90
20380;DHT22;10349;48.666;8.948;2024-02-26T02:09:45;4.20;99.90
20380;DHT22;10349;48.666;8.948;2024-02-26T02:12:11;4.20;99.90
20380;DHT22;10349;48.666;8.948;2024-02-26T02:14:37;4.20;99.90
20380;DHT22;10349;48.666;8.948;2024-02-26T02:17:02;4.20;99.90
20380;DHT22;10349;48.666;8.948;2024-02-26T02:19:28;4.30;99.90
20380;DHT22;10349;48.666;8.948;2024-02-26T02:21:53;4.30;99.90
20380;DHT22;10349;48.666;8.948;2024-02-26T02:24:19;4.40;99.90
20380;DHT22;10349;48.666;8.948;2024-02-26T02:26:45;4.60;99.90
20380;DHT22;10349;48.666;8.948;2024-02-26T02:29:11;4.70;99.90
20380;DHT22;10349;48.666;8.948;2024-02-26T02:31:37;4.70;99.90
20380;DHT22;10349;48.666;8.948;2024-02-26T02:34:03;4.70;99.90
20380;DHT22;10349;48.666;8.948;2024-02-26T02:36:29;4.80;99.90
20380;DHT22;10349;48.666;8.948;2024-02-26T02:38:54;4.90;99.90
20380;DHT22;10349;48.666;8.948;2024-02-26T02:41:20;4.80;99.90
20380;DHT22;10349;48.666;8.948;2024-02-26T02:43:46;4.90;99.90
20380;DHT22;10349;48.666;8.948;2024-02-26T02:46:12;4.90;99.90
20380;DHT22;10349;48.666;8.948;2024-02-26T02:48:38;4.90;99.90
20380;DHT22;10349;48.666;8.948;2024-02-26T02:51:04;4.90;99.90
20380;DHT22;10349;48.666;8.948;2024-02-26T02:53:30;4.90;99.90
20380;DHT22;10349;48.666;8.948;2024-02-26T02:55:55;4.90;99.90
20380;DHT22;10349;48.666;8.948;2024-02-26T02:58:21;4.90;99.90
20380;DHT22;10349;48.666;8.948;2024-02-26T03:00:46;4.90;99.90
20380;DHT22;10349;48.666;8.948;2024-02-26T03:03:12;4.90;99.90
20380;DHT22;10349;48.666;8.948;2024-02-26T03:05:38;5.00;99.90
20380;DHT22;10349;48.666;8.948;2024-02-26T03:08:03;5.00;99.90
20380;DHT22;10349;48.666;8.948;2024-02-26T03:10:29;5.20;99.90
20380;DHT22;10349;48.666;8.948;2024-02-26T03:12:55;5.30;99.90
20380;DHT22;10349;48.666;8.948;2024-02-26T03:15:22;5.40;99.90
20380;DHT22;10349;48.666;8.948;2024-02-26T03:17:47;5.40;99.90
20380;DHT22;10349;48.666;8.948;2024-02-26T03:20:13;5.50;99.90
20380;DHT22;10349;48.666;8.948;2024-02-26T03:22:39;5.50;99.90
20380;DHT22;10349;48.666;8.948;2024-02-26T03:25:06;5.60;99.90
20380;DHT22;10349;48.666;8.948;2024-02-26T03:27:32;5.60;99.90
20380;DHT22;10349;48.666;8.948;2024-02-26T03:29:57;5.70;99.90
20380;DHT22;10349;48.666;8.948;2024-02-26T03:32:23;5.70;99.90
20380;DHT22;10349;48.666;8.948;2024-02-26T03:34:49;5.60;99.90
20380;DHT22;10349;48.666;8.948;2024-02-26T03:37:14;5.60;99.90
20380;DHT22;10349;48.666;8.948;2024-02-26T03:39:40;5.60;99.90
20380;DHT22;10349;48.666;8.948;2024-02-26T03:42:06;5.50;99.90
20380;DHT22;10349;48.666;8.948;2024-02-26T03:44:32;5.50;99.90
20380;DHT22;10349;48.666;8.948;2024-02-26T03:46:57;5.50;99.90
20380;DHT22;10349;48.666;8.948;2024-02-26T03:49:23;5.40;99.90
20380;DHT22;10349;48.666;8.948;2024-02-26T03:51:49;5.40;99.90
20380;DHT22;10349;48.666;8.948;2024-02-26T03:54:14;5.40;99.90
20380;DHT22;10349;48.666;8.948;2024-02-26T03:56:40;5.30;99.90
20380;DHT22;10349;48.666;8.948;2024-02-26T03:59:06;5.30;99.90
20380;DHT22;10349;48.666;8.948;2024-02-26T04:01:31;5.30;99.90
20380;DHT22;10349;48.666;8.948;2024-02-26T04:03:57;5.30;99.90
20380;DHT22;10349;48.666;8.948;2024-02-26T04:06:23;5.40;99.90
20380;DHT22;10349;48.666;8.948;2024-02-26T04:08:48;5.40;99.90
20380;DHT22;10349;48.666;8.948;2024-02-26T04:11:14;5.40;99.90
20380;DHT22;10349;48.666;8.948;2024-02-26T04:13:43;5.40;99.90
20380;DHT22;10349;48.666;8.948;2024-02-26T04:16:11;5.40;99.90
20380;DHT22;10349;48.666;8.948;2024-02-26T04:18:37;5.40;99.90
20380;DHT22;10349;48.666;8.948;2024-02-26T04:21:04;5.40;99.90
20380;DHT22;10349;48.666;8.948;2024-02-26T04:23:30;5.40;99.90
20380;DHT22;10349;48.666;8.948;2024-02-26T04:25:56;5.30;99.90
20380;DHT22;10349;48.666;8.948;2024-02-26T04:28:22;5.30;99.90
20380;DHT22;10349;48.666;8.948;2024-02-26T04:30:47;5.30;99.90
20380;DHT22;10349;48.666;8.948;2024-02-26T04:33:14;5.30;99.90
20380;DHT22;10349;48.666;8.948;2024-02-26T04:35:41;5.20;99.90
20380;DHT22;10349;48.666;8.948;2024-02-26T04:38:06;5.20;99.90
20380;DHT22;10349;48.666;8.948;2024-02-26T04:40:32;5.20;99.90
20380;DHT22;10349;48.666;8.948;2024-02-26T04:42:57;5.20;99.90
20380;DHT22;10349;48.666;8.948;2024-02-26T04:45:23;5.20;99.90
20380;DHT22;10349;48.666;8.948;2024-02-26T04:47:49;5.20;99.90
20380;DHT22;10349;48.666;8.948;2024-02-26T04:50:15;5.10;99.90
20380;DHT22;10349;48.666;8.948;2024-02-26T04:52:41;5.10;99.90
20380;DHT22;10349;48.666;8.948;2024-02-26T04:55:07;5.10;99.90
20380;DHT22;10349;48.666;8.948;2024-02-26T04:57:32;5.10;99.90
20380;DHT22;10349;48.666;8.948;2024-02-26T04:59:58;5.10;99.90
20380;DHT22;10349;48.666;8.948;2024-02-26T05:02:24;5.10;99.90
20380;DHT22;10349;48.666;8.948;2024-02-26T05:04:50;5.10;99.90
20380;DHT22;10349;48.666;8.948;2024-02-26T05:07:15;5.10;99.90
20380;DHT22;10349;48.666;8.948;2024-02-26T05:09:44;5.10;99.90
20380;DHT22;10349;48.666;8.948;2024-02-26T05:12:10;5.10;99.90
20380;DHT22;10349;48.666;8.948;2024-02-26T05:14:36;5.10;99.90
20380;DHT22;10349;48.666;8.948;2024-02-26T05:17:01;5.10;99.90
20380;DHT22;10349;48.666;8.948;2024-02-26T05:19:27;5.20;99.90
20380;DHT22;10349;48.666;8.948;2024-02-26T05:21:53;5.10;99.90
20380;DHT22;10349;48.666;8.948;2024-02-26T05:24:18;5.10;99.90
20380;DHT22;10349;48.666;8.948;2024-02-26T05:26:48;5.10;99.90
20380;DHT22;10349;48.666;8.948;2024-02-26T05:29:13;5.10;99.90
20380;DHT22;10349;48.666;8.948;2024-02-26T05:31:39;5.10;99.90
20380;DHT22;10349;48.666;8.948;2024-02-26T05:34:05;5.10;99.90
20380;DHT22;10349;48.666;8.948;2024-02-26T05:36:30;5.10;99.90
20380;DHT22;10349;48.666;8.948;2024-02-26T05:38:59;5.10;99.90
20380;DHT22;10349;48.666;8.948;2024-02-26T05:41:27;5.10;99.90
20380;DHT22;10349;48.666;8.948;2024-02-26T05:43:53;5.10;99.90
20380;DHT22;10349;48.666;8.948;2024-02-26T05:46:22;5.10;99.90
20380;DHT22;10349;48.666;8.948;2024-02-26T05:48:50;5.10;99.90
20380;DHT22;10349;48.666;8.948;2024-02-26T05:51:15;5.10;99.90
20380;DHT22;10349;48.666;8.948;2024-02-26T05:53:41;5.00;99.90
20380;DHT22;10349;48.666;8.948;2024-02-26T05:56:07;5.00;99.90
20380;DHT22;10349;48.666;8.948;2024-02-26T05:58:33;4.90;99.90
20380;DHT22;10349;48.666;8.948;2024-02-26T06:00:58;5.00;99.90
20380;DHT22;10349;48.666;8.948;2024-02-26T06:03:25;4.90;99.90
20380;DHT22;10349;48.666;8.948;2024-02-26T06:05:51;4.90;99.90
20380;DHT22;10349;48.666;8.948;2024-02-26T06:08:17;4.90;99.90
20380;DHT22;10349;48.666;8.948;2024-02-26T06:10:42;4.80;99.90
20380;DHT22;10349;48.666;8.948;2024-02-26T06:13:08;4.80;99.90
20380;DHT22;10349;48.666;8.948;2024-02-26T06:15:34;4.90;99.90
20380;DHT22;10349;48.666;8.948;2024-02-26T06:17:59;4.90;99.90
20380;DHT22;10349;48.666;8.948;2024-02-26T06:20:25;4.90;99.90
20380;DHT22;10349;48.666;8.948;2024-02-26T06:22:51;4.80;99.90
20380;DHT22;10349;48.666;8.948;2024-02-26T06:25:16;4.80;99.90
20380;DHT22;10349;48.666;8.948;2024-02-26T06:27:42;4.80;99.90
20380;DHT22;10349;48.666;8.948;2024-02-26T06:30:08;4.70;99.90
20380;DHT22;10349;48.666;8.948;2024-02-26T06:32:39;4.70;99.90
20380;DHT22;10349;48.666;8.948;2024-02-26T06:35:05;4.70;99.90
20380;DHT22;10349;48.666;8.948;2024-02-26T06:37:33;4.70;99.90
20380;DHT22;10349;48.666;8.948;2024-02-26T06:40:02;4.70;99.90
20380;DHT22;10349;48.666;8.948;2024-02-26T06:42:29;4.80;99.90
20380;DHT22;10349;48.666;8.948;2024-02-26T06:44:57;4.70;99.90
20380;DHT22;10349;48.666;8.948;2024-02-26T06:47:22;4.80;99.90
20380;DHT22;10349;48.666;8.948;2024-02-26T06:49:48;4.80;99.90
20380;DHT22;10349;48.666;8.948;2024-02-26T06:52:14;4.80;99.90
20380;DHT22;10349;48.666;8.948;2024-02-26T06:54:39;4.70;99.90
20380;DHT22;10349;48.666;8.948;2024-02-26T06:57:05;4.70;99.90
20380;DHT22;10349;48.666;8.948;2024-02-26T06:59:30;4.70;99.90
20380;DHT22;10349;48.666;8.948;2024-02-26T07:01:56;4.70;99.90
20380;DHT22;10349;48.666;8.948;2024-02-26T07:04:22;4.70;99.90
20380;DHT22;10349;48.666;8.948;2024-02-26T07:06:48;4.70;99.90
20380;DHT22;10349;48.666;8.948;2024-02-26T07:09:14;4.70;99.90
20380;DHT22;10349;48.666;8.948;2024-02-26T07:11:42;4.70;99.90
20380;DHT22;10349;48.666;8.948;2024-02-26T07:14:12;4.60;99.90
20380;DHT22;10349;48.666;8.948;2024-02-26T07:16:37;4.70;99.90
20380;DHT22;10349;48.666;8.948;2024-02-26T07:19:03;4.70;99.90
20380;DHT22;10349;48.666;8.948;2024-02-26T07:21:29;4.80;99.90
20380;DHT22;10349;48.666;8.948;2024-02-26T07:23:55;4.80;99.90
20380;DHT22;10349;48.666;8.948;2024-02-26T07:26:20;4.90;99.90
20380;DHT22;10349;48.666;8.948;2024-02-26T07:28:46;4.90;99.90
20380;DHT22;10349;48.666;8.948;2024-02-26T07:31:12;5.00;99.90
20380;DHT22;10349;48.666;8.948;2024-02-26T07:33:38;5.00;99.90
20380;DHT22;10349;48.666;8.948;2024-02-26T07:36:04;5.10;99.90
20380;DHT22;10349;48.666;8.948;2024-02-26T07:38:29;5.10;99.90
20380;DHT22;10349;48.666;8.948;2024-02-26T07:40:55;5.10;99.90
20380;DHT22;10349;48.666;8.948;2024-02-26T07:43:22;5.20;99.90
20380;DHT22;10349;48.666;8.948;2024-02-26T07:45:48;5.20;99.90
20380;DHT22;10349;48.666;8.948;2024-02-26T07:48:13;5.30;99.90
20380;DHT22;10349;48.666;8.948;2024-02-26T07:50:39;5.30;99.90
20380;DHT22;10349;48.666;8.948;2024-02-26T07:53:06;5.40;99.90
20380;DHT22;10349;48.666;8.948;2024-02-26T07:55:31;5.50;99.90
20380;DHT22;10349;48.666;8.948;2024-02-26T07:57:57;5.50;99.90
20380;DHT22;10349;48.666;8.948;2024-02-26T08:00:23;5.40;99.90
20380;DHT22;10349;48.666;8.948;2024-02-26T08:02:48;5.40;99.90
20380;DHT22;10349;48.666;8.948;2024-02-26T08:05:14;5.40;99.90
20380;DHT22;10349;48.666;8.948;2024-02-26T08:07:39;5.50;99.90
20380;DHT22;10349;48.666;8.948;2024-02-26T08:10:06;5.60;99.90
20380;DHT22;10349;48.666;8.948;2024-02-26T08:12:31;5.60;99.90
20380;DHT22;10349;48.666;8.948;2024-02-26T08:14:57;5.70;99.90
20380;DHT22;10349;48.666;8.948;2024-02-26T08:17:23;5.80;99.90
20380;DHT22;10349;48.666;8.948;2024-02-26T08:19:49;5.80;99.90
20380;DHT22;10349;48.666;8.948;2024-02-26T08:22:15;5.90;99.90
20380;DHT22;10349;48.666;8.948;2024-02-26T08:24:44;5.90;99.90
20380;DHT22;10349;48.666;8.948;2024-02-26T08:27:09;6.00;99.90
20380;DHT22;10349;48.666;8.948;2024-02-26T08:29:35;6.10;99.90
20380;DHT22;10349;48.666;8.948;2024-02-26T08:32:01;6.10;99.90
20380;DHT22;10349;48.666;8.948;2024-02-26T08:34:26;6.20;99.90
20380;DHT22;10349;48.666;8.948;2024-02-26T08:36:52;6.20;99.90
20380;DHT22;10349;48.666;8.948;2024-02-26T08:39:18;6.20;99.90
20380;DHT22;10349;48.666;8.948;2024-02-26T08:41:44;6.20;99.90
20380;DHT22;10349;48.666;8.948;2024-02-26T08:44:10;6.30;99.90
20380;DHT22;10349;48.666;8.948;2024-02-26T08:46:36;6.30;99.90
20380;DHT22;10349;48.666;8.948;2024-02-26T08:49:02;6.30;99.90
20380;DHT22;10349;48.666;8.948;2024-02-26T08:51:27;6.30;99.90
20380;DHT22;10349;48.666;8.948;2024-02-26T08:53:53;6.40;99.90
20380;DHT22;10349;48.666;8.948;2024-02-26T08:56:19;6.40;99.90
20380;DHT22;10349;48.666;8.948;2024-02-26T08:58:46;6.50;99.90
20380;DHT22;10349;48.666;8.948;2024-02-26T09:01:14;6.60;99.90
20380;DHT22;10349;48.666;8.948;2024-02-26T09:03:40;6.60;99.90
20380;DHT22;10349;48.666;8.948;2024-02-26T09:06:06;6.60;99.90
20380;DHT22;10349;48.666;8.948;2024-02-26T09:08:32;6.70;99.90
20380;DHT22;10349;48.666;8.948;2024-02-26T09:10:58;6.70;99.90
20380;DHT22;10349;48.666;8.948;2024-02-26T09:13:24;6.70;99.90
20380;DHT22;10349;48.666;8.948;2024-02-26T09:15:50;6.70;99.90
20380;DHT22;10349;48.666;8.948;2024-02-26T09:18:15;6.70;99.90
20380;DHT22;10349;48.666;8.948;2024-02-26T09:20:41;6.70;99.90
20380;DHT22;10349;48.666;8.948;2024-02-26T09:23:07;6.80;99.90
20380;DHT22;10349;48.666;8.948;2024-02-26T09:25:32;6.80;99.90
20380;DHT22;10349;48.666;8.948;2024-02-26T09:28:01;6.90;99.90
20380;DHT22;10349;48.666;8.948;2024-02-26T09:30:27;6.90;99.90
20380;DHT22;10349;48.666;8.948;2024-02-26T09:32:52;7.00;99.90
20380;DHT22;10349;48.666;8.948;2024-02-26T09:35:18;7.10;99.90
20380;DHT22;10349;48.666;8.948;2024-02-26T09:37:44;7.20;99.90
20380;DHT22;10349;48.666;8.948;2024-02-26T09:40:10;7.30;99.90
20380;DHT22;10349;48.666;8.948;2024-02-26T09:42:44;7.30;99.90
20380;DHT22;10349;48.666;8.948;2024-02-26T09:45:13;7.40;99.90
20380;DHT22;10349;48.666;8.948;2024-02-26T09:47:43;7.40;99.90
20380;DHT22;10349;48.666;8.948;2024-02-26T09:50:10;7.50;99.90
20380;DHT22;10349;48.666;8.948;2024-02-26T09:52:39;7.60;99.90
20380;DHT22;10349;48.666;8.948;2024-02-26T09:55:08;7.60;99.90
20380;DHT22;10349;48.666;8.948;2024-02-26T09:57:36;7.80;99.90
20380;DHT22;10349;48.666;8.948;2024-02-26T10:00:03;7.90;99.90
20380;DHT22;10349;48.666;8.948;2024-02-26T10:02:33;8.00;99.90
20380;DHT22;10349;48.666;8.948;2024-02-26T10:05:02;8.20;99.90
20380;DHT22;10349;48.666;8.948;2024-02-26T10:07:30;8.20;99.90
20380;DHT22;10349;48.666;8.948;2024-02-26T10:09:56;8.20;99.90
20380;DHT22;10349;48.666;8.948;2024-02-26T10:12:22;8.20;99.90
20380;DHT22;10349;48.666;8.948;2024-02-26T10:14:48;8.40;99.90
20380;DHT22;10349;48.666;8.948;2024-02-26T10:17:14;8.50;99.90
20380;DHT22;10349;48.666;8.948;2024-02-26T10:19:40;8.60;99.90
20380;DHT22;10349;48.666;8.948;2024-02-26T10:22:06;8.70;99.90
20380;DHT22;10349;48.666;8.948;2024-02-26T10:24:32;8.80;99.90
20380;DHT22;10349;48.666;8.948;2024-02-26T10:26:58;8.80;99.90
20380;DHT22;10349;48.666;8.948;2024-02-26T10:29:24;8.90;99.90
20380;DHT22;10349;48.666;8.948;2024-02-26T10:31:51;8.90;99.90
20380;DHT22;10349;48.666;8.948;2024-02-26T10:34:17;9.00;99.90
20380;DHT22;10349;48.666;8.948;2024-02-26T10:36:43;9.10;99.90
20380;DHT22;10349;48.666;8.948;2024-02-26T10:39:11;9.20;99.90
20380;DHT22;10349;48.666;8.948;2024-02-26T10:41:37;9.30;99.90
20380;DHT22;10349;48.666;8.948;2024-02-26T10:44:04;9.30;99.90
20380;DHT22;10349;48.666;8.948;2024-02-26T10:46:29;9.50;99.90
20380;DHT22;10349;48.666;8.948;2024-02-26T10:48:56;9.50;99.90
20380;DHT22;10349;48.666;8.948;2024-02-26T10:51:29;9.60;99.90
20380;DHT22;10349;48.666;8.948;2024-02-26T10:53:58;9.70;99.90
20380;DHT22;10349;48.666;8.948;2024-02-26T10:56:28;9.90;99.90
20380;DHT22;10349;48.666;8.948;2024-02-26T10:58:58;10.00;99.90
20380;DHT22;10349;48.666;8.948;2024-02-26T11:01:25;10.10;99.90
20380;DHT22;10349;48.666;8.948;2024-02-26T11:03:52;10.20;99.90
20380;DHT22;10349;48.666;8.948;2024-02-26T11:06:19;10.30;99.90
20380;DHT22;10349;48.666;8.948;2024-02-26T11:08:53;10.40;99.90
20380;DHT22;10349;48.666;8.948;2024-02-26T11:11:20;10.50;99.90
20380;DHT22;10349;48.666;8.948;2024-02-26T11:13:47;10.60;99.90
20380;DHT22;10349;48.666;8.948;2024-02-26T11:16:18;10.70;99.90
20380;DHT22;10349;48.666;8.948;2024-02-26T11:18:46;10.60;99.90
20380;DHT22;10349;48.666;8.948;2024-02-26T11:21:15;10.60;99.90
20380;DHT22;10349;48.666;8.948;2024-02-26T11:23:41;10.70;99.90
20380;DHT22;10349;48.666;8.948;2024-02-26T11:26:09;10.70;99.90
20380;DHT22;10349;48.666;8.948;2024-02-26T11:28:35;10.80;99.90
20380;DHT22;10349;48.666;8.948;2024-02-26T11:31:03;10.90;99.90
20380;DHT22;10349;48.666;8.948;2024-02-26T11:33:30;11.00;99.90
20380;DHT22;10349;48.666;8.948;2024-02-26T11:35:56;11.00;99.90
20380;DHT22;10349;48.666;8.948;2024-02-26T11:38:24;11.10;99.90
20380;DHT22;10349;48.666;8.948;2024-02-26T11:40:51;11.20;99.90
20380;DHT22;10349;48.666;8.948;2024-02-26T11:43:23;11.30;99.90
20380;DHT22;10349;48.666;8.948;2024-02-26T11:45:49;11.30;99.90
20380;DHT22;10349;48.666;8.948;2024-02-26T11:48:24;11.30;99.90
20380;DHT22;10349;48.666;8.948;2024-02-26T11:50:54;11.30;99.90
20380;DHT22;10349;48.666;8.948;2024-02-26T11:53:28;11.30;99.90
20380;DHT22;10349;48.666;8.948;2024-02-26T11:58:48;11.20;99.90
20380;DHT22;10349;48.666;8.948;2024-02-26T12:01:44;11.20;99.90
20380;DHT22;10349;48.666;8.948;2024-02-26T12:04:24;11.20;99.90
20380;DHT22;10349;48.666;8.948;2024-02-26T12:07:00;11.20;99.90
20380;DHT22;10349;48.666;8.948;2024-02-26T12:11:57;11.20;99.90
20380;DHT22;10349;48.666;8.948;2024-02-26T12:14:26;11.20;99.90
20380;DHT22;10349;48.666;8.948;2024-02-26T12:16:52;11.20;99.90
20380;DHT22;10349;48.666;8.948;2024-02-26T12:19:18;11.30;99.90
20380;DHT22;10349;48.666;8.948;2024-02-26T12:21:44;11.30;99.90
20380;DHT22;10349;48.666;8.948;2024-02-26T12:24:11;11.30;99.90
20380;DHT22;10349;48.666;8.948;2024-02-26T12:26:38;11.40;99.90
20380;DHT22;10349;48.666;8.948;2024-02-26T12:29:04;11.30;99.90
20380;DHT22;10349;48.666;8.948;2024-02-26T12:31:31;11.40;99.90
20380;DHT22;10349;48.666;8.948;2024-02-26T12:33:58;11.50;99.90
20380;DHT22;10349;48.666;8.948;2024-02-26T12:36:23;11.50;99.90
20380;DHT22;10349;48.666;8.948;2024-02-26T12:38:52;11.50;99.90
20380;DHT22;10349;48.666;8.948;2024-02-26T12:41:18;11.50;99.90
20380;DHT22;10349;48.666;8.948;2024-02-26T12:43:44;11.50;99.90
20380;DHT22;10349;48.666;8.948;2024-02-26T12:46:10;11.50;99.90
20380;DHT22;10349;48.666;8.948;2024-02-26T12:48:36;11.50;99.90
20380;DHT22;10349;48.666;8.948;2024-02-26T12:51:02;11.60;99.90
20380;DHT22;10349;48.666;8.948;2024-02-26T12:53:28;11.60;99.90
20380;DHT22;10349;48.666;8.948;2024-02-26T12:55:55;11.70;99.90
20380;DHT22;10349;48.666;8.948;2024-02-26T12:58:21;11.80;99.90
20380;DHT22;10349;48.666;8.948;2024-02-26T13:00:51;11.90;99.90
20380;DHT22;10349;48.666;8.948;2024-02-26T13:03:17;11.90;99.90
20380;DHT22;10349;48.666;8.948;2024-02-26T13:05:44;12.00;99.90
20380;DHT22;10349;48.666;8.948;2024-02-26T13:08:16;12.10;99.90
20380;DHT22;10349;48.666;8.948;2024-02-26T13:10:42;12.10;99.90
20380;DHT22;10349;48.666;8.948;2024-02-26T13:13:08;12.30;99.90
20380;DHT22;10349;48.666;8.948;2024-02-26T13:15:34;12.30;99.90
20380;DHT22;10349;48.666;8.948;2024-02-26T13:18:12;12.40;99.90
20380;DHT22;10349;48.666;8.948;2024-02-26T13:20:38;12.40;99.90
20380;DHT22;10349;48.666;8.948;2024-02-26T13:23:11;12.40;99.90
20380;DHT22;10349;48.666;8.948;2024-02-26T13:25:38;12.40;99.90
20380;DHT22;10349;48.666;8.948;2024-02-26T13:28:16;12.40;99.90
20380;DHT22;10349;48.666;8.948;2024-02-26T13:30:54;12.30;99.90
20380;DHT22;10349;48.666;8.948;2024-02-26T13:33:23;12.30;99.90
20380;DHT22;10349;48.666;8.948;2024-02-26T13:35:49;12.30;99.90
20380;DHT22;10349;48.666;8.948;2024-02-26T13:38:15;12.20;99.90
20380;DHT22;10349;48.666;8.948;2024-02-26T13:40:40;12.30;99.90
20380;DHT22;10349;48.666;8.948;2024-02-26T13:43:06;12.20;99.90
20380;DHT22;10349;48.666;8.948;2024-02-26T13:45:34;12.20;99.90
20380;DHT22;10349;48.666;8.948;2024-02-26T13:48:08;12.30;99.90
20380;DHT22;10349;48.666;8.948;2024-02-26T13:50:35;12.30;99.90
20380;DHT22;10349;48.666;8.948;2024-02-26T13:53:01;12.30;99.90
20380;DHT22;10349;48.666;8.948;2024-02-26T13:55:27;12.20;99.90
20380;DHT22;10349;48.666;8.948;2024-02-26T13:57:56;12.20;99.90
20380;DHT22;10349;48.666;8.948;2024-02-26T14:00:22;12.20;99.90
20380;DHT22;10349;48.666;8.948;2024-02-26T14:02:48;12.20;99.90
20380;DHT22;10349;48.666;8.948;2024-02-26T14:05:14;12.20;99.90
20380;DHT22;10349;48.666;8.948;2024-02-26T14:07:40;12.30;99.90
20380;DHT22;10349;48.666;8.948;2024-02-26T14:10:06;12.30;99.90
20380;DHT22;10349;48.666;8.948;2024-02-26T14:12:32;12.30;99.90
20380;DHT22;10349;48.666;8.948;2024-02-26T14:14:58;12.40;99.90
20380;DHT22;10349;48.666;8.948;2024-02-26T14:17:26;12.40;99.90
20380;DHT22;10349;48.666;8.948;2024-02-26T14:19:52;12.50;99.90
20380;DHT22;10349;48.666;8.948;2024-02-26T14:22:17;12.50;99.90
20380;DHT22;10349;48.666;8.948;2024-02-26T14:24:43;12.50;99.90
20380;DHT22;10349;48.666;8.948;2024-02-26T14:27:12;12.50;99.90
20380;DHT22;10349;48.666;8.948;2024-02-26T14:29:41;12.40;99.90
20380;DHT22;10349;48.666;8.948;2024-02-26T14:32:09;12.40;99.90
20380;DHT22;10349;48.666;8.948;2024-02-26T14:34:35;12.30;99.90
20380;DHT22;10349;48.666;8.948;2024-02-26T14:37:00;12.20;99.90
20380;DHT22;10349;48.666;8.948;2024-02-26T14:39:26;12.10;99.90
20380;DHT22;10349;48.666;8.948;2024-02-26T14:41:52;12.00;99.90
20380;DHT22;10349;48.666;8.948;2024-02-26T14:44:17;12.00;99.90
20380;DHT22;10349;48.666;8.948;2024-02-26T14:46:43;12.00;99.90
20380;DHT22;10349;48.666;8.948;2024-02-26T14:49:09;12.00;99.90
20380;DHT22;10349;48.666;8.948;2024-02-26T14:51:34;12.00;99.90
20380;DHT22;10349;48.666;8.948;2024-02-26T14:54:00;12.00;99.90
20380;DHT22;10349;48.666;8.948;2024-02-26T14:56:27;12.00;99.90
20380;DHT22;10349;48.666;8.948;2024-02-26T14:58:53;12.00;99.90
20380;DHT22;10349;48.666;8.948;2024-02-26T15:01:19;11.90;99.90
20380;DHT22;10349;48.666;8.948;2024-02-26T15:03:44;11.90;99.90
20380;DHT22;10349;48.666;8.948;2024-02-26T15:06:10;11.80;99.90
20380;DHT22;10349;48.666;8.948;2024-02-26T15:08:36;11.80;99.90
20380;DHT22;10349;48.666;8.948;2024-02-26T15:11:02;11.70;99.90
20380;DHT22;10349;48.666;8.948;2024-02-26T15:13:28;11.70;99.90
20380;DHT22;10349;48.666;8.948;2024-02-26T15:15:54;11.80;99.90
20380;DHT22;10349;48.666;8.948;2024-02-26T15:18:20;11.80;99.90
20380;DHT22;10349;48.666;8.948;2024-02-26T15:20:45;11.80;99.90
20380;DHT22;10349;48.666;8.948;2024-02-26T15:23:11;11.80;99.90
20380;DHT22;10349;48.666;8.948;2024-02-26T15:25:38;11.80;99.90
20380;DHT22;10349;48.666;8.948;2024-02-26T15:28:04;11.80;99.90
20380;DHT22;10349;48.666;8.948;2024-02-26T15:30:29;11.80;99.90
20380;DHT22;10349;48.666;8.948;2024-02-26T15:32:55;11.80;99.90
20380;DHT22;10349;48.666;8.948;2024-02-26T15:35:21;11.80;99.90
20380;DHT22;10349;48.666;8.948;2024-02-26T15:37:47;11.80;99.90
20380;DHT22;10349;48.666;8.948;2024-02-26T15:40:13;11.80;99.90
20380;DHT22;10349;48.666;8.948;2024-02-26T15:42:38;11.70;99.90